createdAt,value
2023-04-15T00:00:35.482Z,0.00
2023-04-15T00:01:35.461Z,0.00
2023-04-15T00:02:35.600Z,0.00
2023-04-15T00:03:35.719Z,0.00
2023-04-15T00:04:35.540Z,0.00
2023-04-15T00:05:35.423Z,0.00
2023-04-15T00:06:35.431Z,0.00
2023-04-15T00:07:35.420Z,0.00
2023-04-15T00:08:35.427Z,0.00
2023-04-15T00:09:35.417Z,0.00
2023-04-15T00:10:35.422Z,0.00
2023-04-15T00:11:35.412Z,0.00
2023-04-15T00:12:35.416Z,0.00
2023-04-15T00:13:35.413Z,0.00
2023-04-15T00:14:35.410Z,0.00
2023-04-15T00:15:35.404Z,0.00
2023-04-15T00:16:35.465Z,0.00
2023-04-15T00:17:35.459Z,0.00
2023-04-15T00:18:35.406Z,0.00
2023-04-15T00:19:35.404Z,0.00
2023-04-15T00:20:35.426Z,0.00
2023-04-15T00:21:35.403Z,0.00
2023-04-15T00:22:35.399Z,0.00
2023-04-15T00:23:35.392Z,0.00
2023-04-15T00:24:35.395Z,0.00
2023-04-15T00:25:35.392Z,0.00
2023-04-15T00:26:35.397Z,0.00
2023-04-15T00:27:35.395Z,0.00
2023-04-15T00:28:35.388Z,0.00
2023-04-15T00:29:35.398Z,0.00
2023-04-15T00:30:35.394Z,0.00
2023-04-15T00:31:35.382Z,0.00
2023-04-15T00:32:35.443Z,0.00
2023-04-15T00:33:35.377Z,0.00
2023-04-15T00:34:35.390Z,0.00
2023-04-15T00:35:35.372Z,0.00
2023-04-15T00:36:35.377Z,0.00
2023-04-15T00:37:35.370Z,0.00
2023-04-15T00:38:35.373Z,0.00
2023-04-15T00:39:35.365Z,0.00
2023-04-15T00:40:35.374Z,0.00
2023-04-15T00:41:35.365Z,0.00
2023-04-15T00:42:35.383Z,0.00
2023-04-15T00:43:35.360Z,0.00
2023-04-15T00:44:35.360Z,0.00
2023-04-15T00:45:35.378Z,0.00
2023-04-15T00:46:35.359Z,0.00
2023-04-15T00:47:35.426Z,0.00
2023-04-15T00:48:35.376Z,0.00
2023-04-15T00:49:35.355Z,0.00
2023-04-15T00:50:35.356Z,0.00
2023-04-15T00:51:35.348Z,0.00
2023-04-15T00:52:35.350Z,0.00
2023-04-15T00:53:35.350Z,0.00
2023-04-15T00:54:35.355Z,0.00
2023-04-15T00:55:35.340Z,0.00
2023-04-15T00:56:35.390Z,0.00
2023-04-15T00:57:35.342Z,0.00
2023-04-15T00:58:35.341Z,0.00
2023-04-15T00:59:35.332Z,0.00
2023-04-15T01:00:35.332Z,0.00
2023-04-15T01:01:35.365Z,0.00
2023-04-15T01:02:35.439Z,0.00
2023-04-15T01:03:35.439Z,0.00
2023-04-15T01:04:35.445Z,0.00
2023-04-15T01:05:35.322Z,0.00
2023-04-15T01:06:35.325Z,0.00
2023-04-15T01:07:35.339Z,0.00
2023-04-15T01:08:35.321Z,0.00
2023-04-15T01:09:35.315Z,0.00
2023-04-15T01:10:35.340Z,0.00
2023-04-15T01:11:35.312Z,0.00
2023-04-15T01:12:35.323Z,0.00
2023-04-15T01:13:35.308Z,0.00
2023-04-15T01:14:35.312Z,0.00
2023-04-15T01:15:35.306Z,0.00
2023-04-15T01:16:35.532Z,0.00
2023-04-15T01:17:35.310Z,0.00
2023-04-15T01:18:35.312Z,0.00
2023-04-15T01:19:35.298Z,0.00
2023-04-15T01:20:35.322Z,0.00
2023-04-15T01:21:35.290Z,0.00
2023-04-15T01:22:35.309Z,0.00
2023-04-15T01:23:35.289Z,0.00
2023-04-15T01:24:35.293Z,0.00
2023-04-15T01:25:35.308Z,0.00
2023-04-15T01:26:35.289Z,0.00
2023-04-15T01:27:35.296Z,0.00
2023-04-15T01:28:35.296Z,0.00
2023-04-15T01:29:35.297Z,0.00
2023-04-15T01:30:35.286Z,0.00
2023-04-15T01:31:35.310Z,0.00
2023-04-15T01:32:35.297Z,0.00
2023-04-15T01:33:35.276Z,0.00
2023-04-15T01:34:35.857Z,0.00
2023-04-15T01:35:35.278Z,0.00
2023-04-15T01:36:35.287Z,0.00
2023-04-15T01:37:35.268Z,0.00
2023-04-15T01:38:35.267Z,0.00
2023-04-15T01:39:35.263Z,0.00
2023-04-15T01:40:35.281Z,0.00
2023-04-15T01:41:35.256Z,0.00
2023-04-15T01:42:35.586Z,0.00
2023-04-15T01:43:35.265Z,0.00
2023-04-15T01:44:35.267Z,0.00
2023-04-15T01:45:35.253Z,0.00
2023-04-15T01:46:35.294Z,0.00
2023-04-15T01:47:35.333Z,0.00
2023-04-15T01:48:35.256Z,0.00
2023-04-15T01:49:35.251Z,0.00
2023-04-15T01:50:35.250Z,0.00
2023-04-15T01:51:35.243Z,0.00
2023-04-15T01:52:35.279Z,0.00
2023-04-15T01:53:35.248Z,0.00
2023-04-15T01:54:35.249Z,0.00
2023-04-15T01:55:35.260Z,0.00
2023-04-15T01:56:35.239Z,0.00
2023-04-15T01:57:35.232Z,0.00
2023-04-15T01:58:35.566Z,0.00
2023-04-15T01:59:35.238Z,0.00
2023-04-15T02:00:35.253Z,0.00
2023-04-15T02:01:35.229Z,0.00
2023-04-15T02:02:35.269Z,0.00
2023-04-15T02:03:35.295Z,0.00
2023-04-15T02:04:35.226Z,0.00
2023-04-15T02:05:35.226Z,0.00
2023-04-15T02:06:35.228Z,0.00
2023-04-15T02:07:35.222Z,0.00
2023-04-15T02:08:35.239Z,0.00
2023-04-15T02:09:35.225Z,0.00
2023-04-15T02:10:35.218Z,0.00
2023-04-15T02:11:35.221Z,0.00
2023-04-15T02:12:35.216Z,0.00
2023-04-15T02:13:35.214Z,0.00
2023-04-15T02:14:35.208Z,0.00
2023-04-15T02:15:35.209Z,0.00
2023-04-15T02:16:35.289Z,0.00
2023-04-15T02:17:35.278Z,0.00
2023-04-15T02:18:35.206Z,0.00
2023-04-15T02:19:35.200Z,0.00
2023-04-15T02:20:35.518Z,0.00
2023-04-15T02:21:35.210Z,0.00
2023-04-15T02:22:35.198Z,0.00
2023-04-15T02:23:35.195Z,0.00
2023-04-15T02:24:35.215Z,0.00
2023-04-15T02:25:35.189Z,0.00
2023-04-15T02:26:35.185Z,0.00
2023-04-15T02:27:35.188Z,0.00
2023-04-15T02:28:35.187Z,0.00
2023-04-15T02:29:35.185Z,0.00
2023-04-15T02:30:35.179Z,0.00
2023-04-15T02:31:35.237Z,0.00
2023-04-15T02:32:35.228Z,0.00
2023-04-15T02:33:35.192Z,0.00
2023-04-15T02:34:35.173Z,0.00
2023-04-15T02:35:35.177Z,0.00
2023-04-15T02:36:35.196Z,0.00
2023-04-15T02:37:35.182Z,0.00
2023-04-15T02:38:35.168Z,0.00
2023-04-15T02:39:35.171Z,0.00
2023-04-15T02:40:35.195Z,0.00
2023-04-15T02:41:35.170Z,0.00
2023-04-15T02:42:35.161Z,0.00
2023-04-15T02:43:35.170Z,0.00
2023-04-15T02:44:35.163Z,0.00
2023-04-15T02:45:35.201Z,0.00
2023-04-15T02:46:35.149Z,0.00
2023-04-15T02:47:35.194Z,0.00
2023-04-15T02:48:35.164Z,0.00
2023-04-15T02:49:35.155Z,0.00
2023-04-15T02:50:35.146Z,0.00
2023-04-15T02:51:35.144Z,0.00
2023-04-15T02:52:35.141Z,0.00
2023-04-15T02:53:35.141Z,0.00
2023-04-15T02:54:35.139Z,0.00
2023-04-15T02:55:35.152Z,0.00
2023-04-15T02:56:35.173Z,0.00
2023-04-15T02:57:35.145Z,0.00
2023-04-15T02:58:35.128Z,0.00
2023-04-15T02:59:35.136Z,0.00
2023-04-15T03:00:35.131Z,0.00
2023-04-15T03:01:35.149Z,0.00
2023-04-15T03:02:35.322Z,0.00
2023-04-15T03:03:35.230Z,0.00
2023-04-15T03:04:35.118Z,0.00
2023-04-15T03:05:35.125Z,0.00
2023-04-15T03:06:35.111Z,0.00
2023-04-15T03:07:35.115Z,0.00
2023-04-15T03:08:35.116Z,0.00
2023-04-15T03:09:35.117Z,0.00
2023-04-15T03:10:35.106Z,0.00
2023-04-15T03:11:36.417Z,0.00
2023-04-15T03:12:35.151Z,0.00
2023-04-15T03:13:35.124Z,0.00
2023-04-15T03:14:35.097Z,0.00
2023-04-15T03:15:35.163Z,0.00
2023-04-15T03:16:35.096Z,0.00
2023-04-15T03:17:35.157Z,0.00
2023-04-15T03:18:35.093Z,0.00
2023-04-15T03:19:35.107Z,0.00
2023-04-15T03:20:35.129Z,0.00
2023-04-15T03:21:35.089Z,0.00
2023-04-15T03:22:35.084Z,0.00
2023-04-15T03:23:35.084Z,0.00
2023-04-15T03:24:35.082Z,0.00
2023-04-15T03:25:35.191Z,0.00
2023-04-15T03:26:35.079Z,0.00
2023-04-15T03:27:35.080Z,0.00
2023-04-15T03:28:35.109Z,0.00
2023-04-15T03:29:35.076Z,0.00
2023-04-15T03:30:35.071Z,0.00
2023-04-15T03:31:35.179Z,0.00
2023-04-15T03:32:35.137Z,0.00
2023-04-15T03:33:35.067Z,0.00
2023-04-15T03:34:35.072Z,0.00
2023-04-15T03:35:35.069Z,0.00
2023-04-15T03:36:35.069Z,0.00
2023-04-15T03:37:35.059Z,0.00
2023-04-15T03:38:35.068Z,0.00
2023-04-15T03:39:35.060Z,0.00
2023-04-15T03:40:35.060Z,0.00
2023-04-15T03:41:35.057Z,0.00
2023-04-15T03:42:35.060Z,0.00
2023-04-15T03:43:35.058Z,0.00
2023-04-15T03:44:35.088Z,0.00
2023-04-15T03:45:35.057Z,0.00
2023-04-15T03:46:35.110Z,0.00
2023-04-15T03:47:35.069Z,0.00
2023-04-15T03:48:35.043Z,0.00
2023-04-15T03:49:35.046Z,0.00
2023-04-15T03:50:35.036Z,0.00
2023-04-15T03:51:35.040Z,0.00
2023-04-15T03:52:35.041Z,0.00
2023-04-15T03:53:35.038Z,0.00
2023-04-15T03:54:35.056Z,0.00
2023-04-15T03:55:35.031Z,0.00
2023-04-15T03:56:35.029Z,0.00
2023-04-15T03:57:35.026Z,0.00
2023-04-15T03:58:35.038Z,0.00
2023-04-15T03:59:35.027Z,0.00
2023-04-15T04:00:35.038Z,0.00
2023-04-15T04:01:35.039Z,0.00
2023-04-15T04:02:35.125Z,0.00
2023-04-15T04:03:35.130Z,0.00
2023-04-15T04:04:35.142Z,0.00
2023-04-15T04:05:35.021Z,0.00
2023-04-15T04:06:35.013Z,0.00
2023-04-15T04:07:35.013Z,0.00
2023-04-15T04:08:35.015Z,0.00
2023-04-15T04:09:35.004Z,0.00
2023-04-15T04:10:35.010Z,0.00
2023-04-15T04:11:35.008Z,0.00
2023-04-15T04:12:34.998Z,0.00
2023-04-15T04:13:35.010Z,0.00
2023-04-15T04:14:35.004Z,0.00
2023-04-15T04:15:35.043Z,0.00
2023-04-15T04:16:35.036Z,0.00
2023-04-15T04:17:35.054Z,0.00
2023-04-15T04:18:34.998Z,0.00
2023-04-15T04:19:34.996Z,0.00
2023-04-15T04:20:34.988Z,5.63
2023-04-15T04:21:34.996Z,5.63
2023-04-15T04:22:34.987Z,5.63
2023-04-15T04:23:34.986Z,5.63
2023-04-15T04:24:34.996Z,5.63
2023-04-15T04:25:34.982Z,5.63
2023-04-15T04:26:34.978Z,5.63
2023-04-15T04:27:34.979Z,11.25
2023-04-15T04:28:34.979Z,11.25
2023-04-15T04:29:34.992Z,11.25
2023-04-15T04:30:34.978Z,11.25
2023-04-15T04:31:35.017Z,11.25
2023-04-15T04:32:35.036Z,16.88
2023-04-15T04:33:34.966Z,16.88
2023-04-15T04:34:34.961Z,16.88
2023-04-15T04:35:35.000Z,16.88
2023-04-15T04:36:34.954Z,22.50
2023-04-15T04:37:34.956Z,22.50
2023-04-15T04:38:34.964Z,22.50
2023-04-15T04:39:34.954Z,22.50
2023-04-15T04:40:34.947Z,28.13
2023-04-15T04:41:34.956Z,28.13
2023-04-15T04:42:35.713Z,28.13
2023-04-15T04:43:34.956Z,28.13
2023-04-15T04:44:34.937Z,28.13
2023-04-15T04:45:34.982Z,28.13
2023-04-15T04:46:34.944Z,28.13
2023-04-15T04:47:34.953Z,28.13
2023-04-15T04:48:34.961Z,33.75
2023-04-15T04:49:34.942Z,33.75
2023-04-15T04:50:34.933Z,33.75
2023-04-15T04:51:34.938Z,33.75
2023-04-15T04:52:34.937Z,33.75
2023-04-15T04:53:34.937Z,39.38
2023-04-15T04:54:34.942Z,39.38
2023-04-15T04:55:34.936Z,39.38
2023-04-15T04:56:34.924Z,39.38
2023-04-15T04:57:34.931Z,39.38
2023-04-15T04:58:34.923Z,39.38
2023-04-15T04:59:34.919Z,39.38
2023-04-15T05:00:34.923Z,39.38
2023-04-15T05:01:34.991Z,39.38
2023-04-15T05:02:35.041Z,39.38
2023-04-15T05:03:35.053Z,39.38
2023-04-15T05:04:34.937Z,33.75
2023-04-15T05:05:34.915Z,33.75
2023-04-15T05:06:34.907Z,33.75
2023-04-15T05:07:34.909Z,33.75
2023-04-15T05:08:34.899Z,33.75
2023-04-15T05:09:34.905Z,39.38
2023-04-15T05:10:34.909Z,39.38
2023-04-15T05:11:34.905Z,39.38
2023-04-15T05:12:34.912Z,39.38
2023-04-15T05:13:34.901Z,39.38
2023-04-15T05:14:34.903Z,39.38
2023-04-15T05:15:34.966Z,39.38
2023-04-15T05:16:34.891Z,39.38
2023-04-15T05:17:34.906Z,33.75
2023-04-15T05:18:34.886Z,33.75
2023-04-15T05:19:34.897Z,33.75
2023-04-15T05:20:34.912Z,39.38
2023-04-15T05:21:34.883Z,39.38
2023-04-15T05:22:34.886Z,45.00
2023-04-15T05:23:34.885Z,50.63
2023-04-15T05:24:34.878Z,50.63
2023-04-15T05:25:34.879Z,50.63
2023-04-15T05:26:34.879Z,50.63
2023-04-15T05:27:34.911Z,50.63
2023-04-15T05:28:34.885Z,50.63
2023-04-15T05:29:34.920Z,50.63
2023-04-15T05:30:34.873Z,50.63
2023-04-15T05:31:35.011Z,50.63
2023-04-15T05:32:34.882Z,50.63
2023-04-15T05:33:34.868Z,50.63
2023-04-15T05:34:34.885Z,50.63
2023-04-15T05:35:34.869Z,56.25
2023-04-15T05:36:34.877Z,61.88
2023-04-15T05:37:34.862Z,61.88
2023-04-15T05:38:34.856Z,67.50
2023-04-15T05:39:34.877Z,73.13
2023-04-15T05:40:34.853Z,73.13
2023-04-15T05:41:34.865Z,78.75
2023-04-15T05:42:34.857Z,84.38
2023-04-15T05:43:34.851Z,90.00
2023-04-15T05:44:34.856Z,95.63
2023-04-15T05:45:34.849Z,95.63
2023-04-15T05:46:34.891Z,101.25
2023-04-15T05:47:34.878Z,101.25
2023-04-15T05:48:34.843Z,106.88
2023-04-15T05:49:34.849Z,106.88
2023-04-15T05:50:34.842Z,112.50
2023-04-15T05:51:34.839Z,118.13
2023-04-15T05:52:34.854Z,123.75
2023-04-15T05:53:34.838Z,123.75
2023-04-15T05:54:34.832Z,123.75
2023-04-15T05:55:34.840Z,123.75
2023-04-15T05:56:34.829Z,129.38
2023-04-15T05:57:34.836Z,135.00
2023-04-15T05:58:34.828Z,135.00
2023-04-15T05:59:34.828Z,135.00
2023-04-15T06:00:34.824Z,140.63
2023-04-15T06:01:34.825Z,140.63
2023-04-15T06:02:35.114Z,140.63
2023-04-15T06:03:35.023Z,140.63
2023-04-15T06:04:34.913Z,140.63
2023-04-15T06:05:34.837Z,140.63
2023-04-15T06:06:34.808Z,140.63
2023-04-15T06:07:34.814Z,140.63
2023-04-15T06:08:34.834Z,140.63
2023-04-15T06:09:34.826Z,135.00
2023-04-15T06:10:34.809Z,135.00
2023-04-15T06:11:34.810Z,135.00
2023-04-15T06:12:34.809Z,135.00
2023-04-15T06:13:34.821Z,135.00
2023-04-15T06:14:34.808Z,135.00
2023-04-15T06:15:34.804Z,135.00
2023-04-15T06:16:34.866Z,140.63
2023-04-15T06:17:34.843Z,146.25
2023-04-15T06:18:34.794Z,151.88
2023-04-15T06:19:34.797Z,157.50
2023-04-15T06:20:34.912Z,157.50
2023-04-15T06:21:34.787Z,157.50
2023-04-15T06:22:34.790Z,151.88
2023-04-15T06:23:34.794Z,151.88
2023-04-15T06:24:34.824Z,146.25
2023-04-15T06:25:34.785Z,151.88
2023-04-15T06:26:34.793Z,157.50
2023-04-15T06:27:34.784Z,168.75
2023-04-15T06:28:34.789Z,168.75
2023-04-15T06:29:34.793Z,168.75
2023-04-15T06:30:34.782Z,168.75
2023-04-15T06:32:34.799Z,163.13
2023-04-15T06:33:34.769Z,163.13
2023-04-15T06:34:34.788Z,163.13
2023-04-15T06:35:34.771Z,163.13
2023-04-15T06:36:34.770Z,163.13
2023-04-15T06:37:34.765Z,168.75
2023-04-15T06:38:34.773Z,168.75
2023-04-15T06:39:34.764Z,174.38
2023-04-15T06:40:34.788Z,185.63
2023-04-15T06:41:34.764Z,191.25
2023-04-15T06:42:34.773Z,202.50
2023-04-15T06:43:34.758Z,213.75
2023-04-15T06:44:34.760Z,219.38
2023-04-15T06:45:35.146Z,225.00
2023-04-15T06:46:34.773Z,225.00
2023-04-15T06:47:34.777Z,225.00
2023-04-15T06:48:34.753Z,225.00
2023-04-15T06:49:34.751Z,225.00
2023-04-15T06:50:34.753Z,230.63
2023-04-15T06:51:34.747Z,236.25
2023-04-15T06:52:34.743Z,236.25
2023-04-15T06:53:34.744Z,236.25
2023-04-15T06:54:34.748Z,236.25
2023-04-15T06:55:34.741Z,241.88
2023-04-15T06:56:34.770Z,241.88
2023-04-15T06:57:35.171Z,219.38
2023-04-15T06:58:34.741Z,213.75
2023-04-15T06:59:34.740Z,208.13
2023-04-15T07:00:34.732Z,225.00
2023-04-15T07:01:34.757Z,208.13
2023-04-15T07:02:34.793Z,219.38
2023-04-15T07:03:34.727Z,225.00
2023-04-15T07:04:34.833Z,236.25
2023-04-15T07:05:34.725Z,219.38
2023-04-15T07:06:34.724Z,241.88
2023-04-15T07:07:34.728Z,202.50
2023-04-15T07:08:34.735Z,196.88
2023-04-15T07:09:34.723Z,185.63
2023-04-15T07:10:34.733Z,174.38
2023-04-15T07:11:34.719Z,168.75
2023-04-15T07:12:34.742Z,191.25
2023-04-15T07:13:34.709Z,174.38
2023-04-15T07:14:34.712Z,163.13
2023-04-15T07:15:34.716Z,157.50
2023-04-15T07:16:34.806Z,151.88
2023-04-15T07:17:34.746Z,140.63
2023-04-15T07:18:34.715Z,151.88
2023-04-15T07:19:34.708Z,140.63
2023-04-15T07:20:34.713Z,118.13
2023-04-15T07:21:34.708Z,101.25
2023-04-15T07:22:34.709Z,118.13
2023-04-15T07:23:34.707Z,95.63
2023-04-15T07:24:34.711Z,106.88
2023-04-15T07:25:34.700Z,112.50
2023-04-15T07:26:34.697Z,118.13
2023-04-15T07:27:34.700Z,112.50
2023-04-15T07:28:34.733Z,118.13
2023-04-15T07:29:34.699Z,129.38
2023-04-15T07:30:34.703Z,106.88
2023-04-15T07:31:34.722Z,129.38
2023-04-15T07:32:34.708Z,135.00
2023-04-15T07:33:34.687Z,118.13
2023-04-15T07:34:34.698Z,90.00
2023-04-15T07:35:34.686Z,101.25
2023-04-15T07:36:34.687Z,106.88
2023-04-15T07:37:34.730Z,118.13
2023-04-15T07:38:34.691Z,112.50
2023-04-15T07:39:34.690Z,118.13
2023-04-15T07:40:34.686Z,95.63
2023-04-15T07:41:34.680Z,101.25
2023-04-15T07:42:34.734Z,95.63
2023-04-15T07:43:34.680Z,95.63
2023-04-15T07:44:34.741Z,101.25
2023-04-15T07:45:34.682Z,106.88
2023-04-15T07:46:34.781Z,95.63
2023-04-15T07:47:34.738Z,101.25
2023-04-15T07:48:35.617Z,101.25
2023-04-15T07:49:34.675Z,112.50
2023-04-15T07:50:34.671Z,112.50
2023-04-15T07:51:34.676Z,112.50
2023-04-15T07:52:34.669Z,118.13
2023-04-15T07:53:34.670Z,112.50
2023-04-15T07:54:34.670Z,112.50
2023-04-15T07:55:34.675Z,123.75
2023-04-15T07:56:34.672Z,135.00
2023-04-15T07:57:34.666Z,123.75
2023-04-15T07:58:34.661Z,129.38
2023-04-15T07:59:34.696Z,129.38
2023-04-15T08:00:34.708Z,112.50
2023-04-15T08:01:34.657Z,106.88
2023-04-15T08:02:35.137Z,106.88
2023-04-15T08:03:34.770Z,101.25
2023-04-15T08:04:34.854Z,95.63
2023-04-15T08:05:34.646Z,106.88
2023-04-15T08:06:34.659Z,112.50
2023-04-15T08:07:34.650Z,106.88
2023-04-15T08:08:34.650Z,118.13
2023-04-15T08:09:34.647Z,112.50
2023-04-15T08:10:34.649Z,118.13
2023-04-15T08:11:34.655Z,146.25
2023-04-15T08:12:34.645Z,151.88
2023-04-15T08:13:34.643Z,168.75
2023-04-15T08:14:34.641Z,151.88
2023-04-15T08:15:34.636Z,157.50
2023-04-15T08:16:34.731Z,157.50
2023-04-15T08:17:34.660Z,146.25
2023-04-15T08:18:34.677Z,151.88
2023-04-15T08:19:34.637Z,157.50
2023-04-15T08:20:34.636Z,140.63
2023-04-15T08:21:34.634Z,151.88
2023-04-15T08:22:34.632Z,157.50
2023-04-15T08:23:34.624Z,174.38
2023-04-15T08:24:34.632Z,191.25
2023-04-15T08:25:34.624Z,151.88
2023-04-15T08:26:34.619Z,151.88
2023-04-15T08:27:34.624Z,174.38
2023-04-15T08:28:34.621Z,174.38
2023-04-15T08:29:34.632Z,151.88
2023-04-15T08:30:34.618Z,163.13
2023-04-15T08:31:34.642Z,157.50
2023-04-15T08:32:34.663Z,174.38
2023-04-15T08:33:34.815Z,163.13
2023-04-15T08:34:34.664Z,185.63
2023-04-15T08:35:34.602Z,168.75
2023-04-15T08:36:34.605Z,157.50
2023-04-15T08:37:34.603Z,157.50
2023-04-15T08:38:34.706Z,157.50
2023-04-15T08:39:34.601Z,151.88
2023-04-15T08:40:34.599Z,168.75
2023-04-15T08:41:34.587Z,168.75
2023-04-15T08:42:34.603Z,163.13
2023-04-15T08:43:34.601Z,196.88
2023-04-15T08:44:34.594Z,208.13
2023-04-15T08:45:34.603Z,219.38
2023-04-15T08:46:34.632Z,202.50
2023-04-15T08:47:34.685Z,208.13
2023-04-15T08:48:34.610Z,208.13
2023-04-15T08:49:34.587Z,219.38
2023-04-15T08:50:34.592Z,191.25
2023-04-15T08:51:34.585Z,219.38
2023-04-15T08:52:34.585Z,230.63
2023-04-15T08:53:34.596Z,236.25
2023-04-15T08:54:34.591Z,208.13
2023-04-15T08:55:34.582Z,219.38
2023-04-15T08:56:34.613Z,230.63
2023-04-15T08:57:34.578Z,191.25
2023-04-15T08:58:34.608Z,241.88
2023-04-15T08:59:34.579Z,315.00
2023-04-15T09:00:34.577Z,320.63
2023-04-15T09:01:34.657Z,303.75
2023-04-15T09:02:34.775Z,298.13
2023-04-15T09:03:34.634Z,326.25
2023-04-15T09:04:34.593Z,292.50
2023-04-15T09:05:34.587Z,275.63
2023-04-15T09:06:34.628Z,298.13
2023-04-15T09:07:34.562Z,303.75
2023-04-15T09:08:34.564Z,298.13
2023-04-15T09:09:34.563Z,303.75
2023-04-15T09:10:34.568Z,303.75
2023-04-15T09:11:34.571Z,275.63
2023-04-15T09:12:34.559Z,303.75
2023-04-15T09:13:34.567Z,292.50
2023-04-15T09:14:34.564Z,315.00
2023-04-15T09:15:34.574Z,241.88
2023-04-15T09:16:34.577Z,236.25
2023-04-15T09:17:34.637Z,219.38
2023-04-15T09:18:34.554Z,258.75
2023-04-15T09:19:34.593Z,270.00
2023-04-15T09:20:34.576Z,286.88
2023-04-15T09:21:34.556Z,281.25
2023-04-15T09:22:34.549Z,258.75
2023-04-15T09:23:34.539Z,213.75
2023-04-15T09:24:34.542Z,168.75
2023-04-15T09:25:35.217Z,202.50
2023-04-15T09:26:34.570Z,196.88
2023-04-15T09:27:34.541Z,151.88
2023-04-15T09:28:34.549Z,202.50
2023-04-15T09:29:34.569Z,174.38
2023-04-15T09:30:34.545Z,196.88
2023-04-15T09:31:34.536Z,196.88
2023-04-15T09:32:34.533Z,168.75
2023-04-15T09:33:34.558Z,174.38
2023-04-15T09:34:34.543Z,180.00
2023-04-15T09:35:34.525Z,191.25
2023-04-15T09:36:34.565Z,196.88
2023-04-15T09:37:34.526Z,185.63
2023-04-15T09:38:34.526Z,219.38
2023-04-15T09:39:34.522Z,230.63
2023-04-15T09:40:34.523Z,208.13
2023-04-15T09:41:34.529Z,196.88
2023-04-15T09:42:34.523Z,163.13
2023-04-15T09:43:34.523Z,151.88
2023-04-15T09:44:34.520Z,168.75
2023-04-15T09:45:34.513Z,135.00
2023-04-15T09:46:34.553Z,146.25
2023-04-15T09:47:34.534Z,151.88
2023-04-15T09:48:34.522Z,191.25
2023-04-15T09:49:34.531Z,191.25
2023-04-15T09:50:34.515Z,191.25
2023-04-15T09:51:34.529Z,146.25
2023-04-15T09:52:34.533Z,168.75
2023-04-15T09:53:34.508Z,163.13
2023-04-15T09:54:34.506Z,157.50
2023-04-15T09:55:34.502Z,135.00
2023-04-15T09:56:34.507Z,129.38
2023-04-15T09:57:34.516Z,146.25
2023-04-15T09:58:34.507Z,168.75
2023-04-15T09:59:34.498Z,168.75
2023-04-15T10:00:34.512Z,163.13
2023-04-15T10:01:34.517Z,185.63
2023-04-15T10:02:34.661Z,174.38
2023-04-15T10:03:34.855Z,146.25
2023-04-15T10:04:34.496Z,191.25
2023-04-15T10:05:34.492Z,213.75
2023-04-15T10:06:34.500Z,213.75
2023-04-15T10:07:34.491Z,191.25
2023-04-15T10:08:34.520Z,191.25
2023-04-15T10:09:34.490Z,230.63
2023-04-15T10:10:34.500Z,225.00
2023-04-15T10:11:34.487Z,247.50
2023-04-15T10:12:34.502Z,219.38
2023-04-15T10:13:34.488Z,208.13
2023-04-15T10:14:34.492Z,230.63
2023-04-15T10:15:34.533Z,230.63
2023-04-15T10:16:34.481Z,236.25
2023-04-15T10:17:34.489Z,281.25
2023-04-15T10:18:34.492Z,236.25
2023-04-15T10:19:34.474Z,236.25
2023-04-15T10:20:34.476Z,258.75
2023-04-15T10:21:34.478Z,253.13
2023-04-15T10:22:34.474Z,225.00
2023-04-15T10:23:34.471Z,236.25
2023-04-15T10:24:34.523Z,236.25
2023-04-15T10:25:34.473Z,213.75
2023-04-15T10:26:34.477Z,174.38
2023-04-15T10:27:34.469Z,225.00
2023-04-15T10:28:34.471Z,230.63
2023-04-15T10:29:34.462Z,185.63
2023-04-15T10:30:34.468Z,202.50
2023-04-15T10:31:34.515Z,202.50
2023-04-15T10:32:34.514Z,163.13
2023-04-15T10:33:34.465Z,168.75
2023-04-15T10:34:34.461Z,185.63
2023-04-15T10:35:34.451Z,202.50
2023-04-15T10:36:34.457Z,213.75
2023-04-15T10:37:34.463Z,208.13
2023-04-15T10:38:34.491Z,202.50
2023-04-15T10:39:34.658Z,208.13
2023-04-15T10:40:34.493Z,180.00
2023-04-15T10:41:34.544Z,163.13
2023-04-15T10:42:34.459Z,157.50
2023-04-15T10:43:34.453Z,157.50
2023-04-15T10:44:34.466Z,163.13
2023-04-15T10:45:34.465Z,168.75
2023-04-15T10:46:34.482Z,151.88
2023-04-15T10:47:34.482Z,163.13
2023-04-15T10:48:34.448Z,157.50
2023-04-15T10:49:34.448Z,163.13
2023-04-15T10:50:34.452Z,168.75
2023-04-15T10:51:34.437Z,140.63
2023-04-15T10:52:34.435Z,146.25
2023-04-15T10:53:34.438Z,140.63
2023-04-15T10:54:34.436Z,146.25
2023-04-15T10:55:34.475Z,129.38
2023-04-15T10:56:34.450Z,123.75
2023-04-15T10:57:34.445Z,123.75
2023-04-15T10:58:34.431Z,140.63
2023-04-15T10:59:34.429Z,129.38
2023-04-15T11:00:34.428Z,151.88
2023-04-15T11:01:34.463Z,140.63
2023-04-15T11:02:34.608Z,146.25
2023-04-15T11:03:34.618Z,157.50
2023-04-15T11:04:34.503Z,135.00
2023-04-15T11:05:34.451Z,168.75
2023-04-15T11:06:34.424Z,180.00
2023-04-15T11:07:34.424Z,174.38
2023-04-15T11:08:34.425Z,163.13
2023-04-15T11:09:34.478Z,140.63
2023-04-15T11:10:34.497Z,151.88
2023-04-15T11:11:34.417Z,140.63
2023-04-15T11:12:34.432Z,129.38
2023-04-15T11:13:34.446Z,157.50
2023-04-15T11:14:34.419Z,146.25
2023-04-15T11:15:34.410Z,191.25
2023-04-15T11:16:34.439Z,168.75
2023-04-15T11:17:34.501Z,180.00
2023-04-15T11:18:34.406Z,180.00
2023-04-15T11:19:34.401Z,225.00
2023-04-15T11:20:34.409Z,185.63
2023-04-15T11:21:34.399Z,196.88
2023-04-15T11:22:34.395Z,151.88
2023-04-15T11:23:34.407Z,140.63
2023-04-15T11:24:34.394Z,140.63
2023-04-15T11:25:34.394Z,146.25
2023-04-15T11:26:34.392Z,135.00
2023-04-15T11:27:34.388Z,163.13
2023-04-15T11:28:34.620Z,135.00
2023-04-15T11:29:34.392Z,135.00
2023-04-15T11:30:34.385Z,146.25
2023-04-15T11:31:34.414Z,140.63
2023-04-15T11:32:34.430Z,123.75
2023-04-15T11:33:34.388Z,129.38
2023-04-15T11:34:35.643Z,157.50
2023-04-15T11:35:34.384Z,118.13
2023-04-15T11:36:34.382Z,129.38
2023-04-15T11:37:34.381Z,135.00
2023-04-15T11:38:34.378Z,118.13
2023-04-15T11:39:34.380Z,101.25
2023-04-15T11:40:34.400Z,123.75
2023-04-15T11:41:34.390Z,112.50
2023-04-15T11:42:46.771Z,112.50
2023-04-15T11:43:34.377Z,106.88
2023-04-15T11:44:34.404Z,135.00
2023-04-15T11:45:34.421Z,151.88
2023-04-15T11:46:34.385Z,146.25
2023-04-15T11:47:34.446Z,129.38
2023-04-15T11:48:34.362Z,140.63
2023-04-15T11:49:35.375Z,151.88
2023-04-15T11:50:34.368Z,146.25
2023-04-15T11:51:34.430Z,129.38
2023-04-15T11:52:34.366Z,112.50
2023-04-15T11:53:34.364Z,129.38
2023-04-15T11:54:34.363Z,135.00
2023-04-15T11:55:34.374Z,151.88
2023-04-15T11:56:34.371Z,185.63
2023-04-15T11:57:34.371Z,185.63
2023-04-15T11:58:34.365Z,168.75
2023-04-15T11:59:44.472Z,174.38
2023-04-15T12:00:34.365Z,174.38
2023-04-15T12:01:34.353Z,180.00
2023-04-15T12:02:34.456Z,185.63
2023-04-15T12:03:34.667Z,196.88
2023-04-15T12:04:34.465Z,213.75
2023-04-15T12:05:34.346Z,225.00
2023-04-15T12:06:34.354Z,230.63
2023-04-15T12:07:34.346Z,241.88
2023-04-15T12:08:34.354Z,213.75
2023-04-15T12:09:34.354Z,270.00
2023-04-15T12:10:34.342Z,298.13
2023-04-15T12:11:34.343Z,275.63
2023-04-15T12:12:34.337Z,236.25
2023-04-15T12:13:34.338Z,236.25
2023-04-15T12:14:34.338Z,225.00
2023-04-15T12:15:34.357Z,270.00
2023-04-15T12:16:36.958Z,275.63
2023-04-15T12:17:51.004Z,320.63
2023-04-15T12:18:34.328Z,320.63
2023-04-15T12:19:34.335Z,286.88
2023-04-15T12:20:34.332Z,258.75
2023-04-15T12:21:34.344Z,180.00
2023-04-15T12:22:34.326Z,163.13
2023-04-15T12:23:34.332Z,140.63
2023-04-15T12:24:34.327Z,180.00
2023-04-15T12:25:34.333Z,202.50
2023-04-15T12:26:34.320Z,275.63
2023-04-15T12:27:34.324Z,264.38
2023-04-15T12:28:34.313Z,393.75
2023-04-15T12:29:34.341Z,438.75
2023-04-15T12:30:34.323Z,438.75
2023-04-15T12:31:34.356Z,455.63
2023-04-15T12:32:34.373Z,483.75
2023-04-15T12:33:34.318Z,466.88
2023-04-15T12:34:34.317Z,517.50
2023-04-15T12:35:34.322Z,556.88
2023-04-15T12:36:34.314Z,573.75
2023-04-15T12:37:34.317Z,585.00
2023-04-15T12:38:34.312Z,500.63
2023-04-15T12:39:34.318Z,466.88
2023-04-15T12:40:34.318Z,371.25
2023-04-15T12:41:34.317Z,309.38
2023-04-15T12:42:34.317Z,337.50
2023-04-15T12:43:34.312Z,275.63
2023-04-15T12:44:34.316Z,253.13
2023-04-15T12:45:34.315Z,253.13
2023-04-15T12:46:34.330Z,326.25
2023-04-15T12:47:34.335Z,343.13
2023-04-15T12:48:34.325Z,275.63